Port Mellon, Canada
Current Conditions -  °F | °C
As of 8:00 PM on Friday 19 Dec 2014 (Local Time) from CYVR Reporting Station
Overcast Overcast  
Wind Chill: 41°   Ceiling: 2700
Heat Index: 46°   Visibility: 15mi
Dew Point: 43°   Wind: 12mph
Humidity: 87%   Direction: 100°E
Pressure: 29.88"   Gusts: NA
Location:  49.52°N, 123.48°W
Report Text: CYVR 200400Z 10010KT 15SM BKN027 OVC079 08/06 A2988 RMK SC5AC3 SLP117
Loading
Personal Weather Stations






























Interactive Weather Map New forecast layout! Learn more

10-Day Weather Forecast

Advertisements
Track Severe Weather on mobile